Terminal Aerodrome Forecast
Issued by NWS

Current Version | Previous Version | Graphics & Text | Print | Product List | Glossary On
Versions: 1 2 3 4 5 6 7 8 9 10 11 12 13 14 15 16 17
000
FTUS41 KILN 280500
TAFLUK
TAF
KLUK 280520Z 2806/2906 33008KT P6SM OVC060
     FM281100 34006KT P6SM FEW045
     FM290000 VRB01KT P6SM SKC=

USA.gov is the U.S. government's official web portal to all federal, state and local government web resources and services.